Time;durP1;ratioP1;P1;durP2;ratioP2;P2;SDS_P1;SDS_P2;PMS_P1;PMS_P2;Temp;Humidity;BMP_temperature;BMP_pressure;BME280_temperature;BME280_humidity;BME280_pressure;Samples;Min_cycle;Max_cycle;Signal;HPM_P1;HPM_P2
2022/03/01 00:00:21;;;;;;;1999.90;999.90;;;5.10;99.90;;;;;;5014287;28;20169;-79
2022/03/01 00:02:47;;;;;;;1999.90;999.90;;;5.10;99.90;;;;;;5014193;28;20176;-79
2022/03/01 00:05:13;;;;;;;1999.90;999.90;;;5.00;99.90;;;;;;5013818;28;20173;-79
2022/03/01 00:07:38;;;;;;;1999.90;999.90;;;4.90;99.90;;;;;;5014088;28;20184;-79
2022/03/01 00:10:05;;;;;;;1999.90;999.90;;;4.90;99.90;;;;;;5013861;28;20451;-78
2022/03/01 00:12:30;;;;;;;1999.90;999.90;;;4.70;99.90;;;;;;5014063;28;20172;-79
2022/03/01 00:14:56;;;;;;;1999.90;999.90;;;4.70;99.90;;;;;;5013695;28;20495;-79
2022/03/01 00:17:23;;;;;;;1999.90;999.90;;;4.70;99.90;;;;;;5013796;28;20189;-79
2022/03/01 00:19:48;;;;;;;1999.90;999.90;;;4.70;99.90;;;;;;5012910;28;20172;-78
2022/03/01 00:22:14;;;;;;;1999.90;999.90;;;4.70;99.90;;;;;;5013873;28;20889;-79
2022/03/01 00:24:39;;;;;;;1999.90;999.90;;;4.60;99.90;;;;;;5013388;28;20172;-78
2022/03/01 00:27:05;;;;;;;1999.90;999.90;;;4.50;99.90;;;;;;5013690;28;20192;-79
2022/03/01 00:29:31;;;;;;;1999.90;999.90;;;4.40;99.90;;;;;;5013739;28;20199;-79
2022/03/01 00:31:57;;;;;;;1999.90;999.90;;;4.50;99.90;;;;;;5013474;28;20192;-79
2022/03/01 00:34:22;;;;;;;1999.90;999.90;;;4.60;99.90;;;;;;5013408;28;20165;-80
2022/03/01 00:36:48;;;;;;;1999.90;999.90;;;4.60;99.90;;;;;;5013531;28;20185;-78
2022/03/01 00:39:14;;;;;;;1999.90;999.90;;;4.70;99.90;;;;;;5013419;28;20161;-79
2022/03/01 00:41:40;;;;;;;1999.90;999.90;;;4.70;99.90;;;;;;4995816;28;20524;-79
2022/03/01 00:44:06;;;;;;;1999.90;999.90;;;4.70;99.90;;;;;;5013136;28;20182;-79
2022/03/01 00:46:32;;;;;;;1999.90;999.90;;;4.50;99.90;;;;;;5013440;28;20514;-79
2022/03/01 00:48:58;;;;;;;1999.90;999.90;;;4.50;99.90;;;;;;5013236;28;20400;-79
2022/03/01 00:51:26;;;;;;;1999.90;999.90;;;4.30;99.90;;;;;;5013300;28;20411;-77
2022/03/01 00:53:52;;;;;;;1999.90;999.90;;;4.20;99.90;;;;;;5013143;28;20534;-78
2022/03/01 00:56:18;;;;;;;1999.90;999.90;;;4.10;99.90;;;;;;5014943;28;20459;-79
2022/03/01 00:58:43;;;;;;;1999.90;999.90;;;4.00;99.90;;;;;;5016259;28;20204;-79
2022/03/01 01:01:09;;;;;;;1999.90;999.90;;;4.00;99.90;;;;;;5014332;28;20200;-79
2022/03/01 01:03:35;;;;;;;1999.90;999.90;;;4.00;99.90;;;;;;5013039;28;20177;-78
2022/03/01 01:06:01;;;;;;;1999.90;999.90;;;4.10;99.90;;;;;;5012629;28;20514;-79
2022/03/01 01:08:26;;;;;;;1999.90;999.90;;;4.10;99.90;;;;;;5012940;28;20243;-78
2022/03/01 01:10:52;;;;;;;1999.90;999.90;;;4.10;99.90;;;;;;5012839;28;20201;-78
2022/03/01 01:13:19;;;;;;;1999.90;999.90;;;4.10;99.90;;;;;;5012937;28;20172;-78
2022/03/01 01:15:44;;;;;;;1999.90;999.90;;;4.10;99.90;;;;;;5012531;28;20188;-78
2022/03/01 01:18:10;;;;;;;1999.90;999.90;;;4.10;99.90;;;;;;5102670;22;20984;-75
2022/03/01 01:20:41;;;;;;;1999.90;999.90;;;4.10;99.90;;;;;;5072474;28;20171;-75
2022/03/01 01:23:07;;;;;;;1999.90;999.90;;;4.10;99.90;;;;;;5072340;28;20390;-75
2022/03/01 01:25:34;;;;;;;1999.90;999.90;;;4.10;99.90;;;;;;5054549;28;20834;-75
2022/03/01 01:28:02;;;;;;;1999.90;999.90;;;4.70;99.90;;;;;;5056833;28;20188;-75
2022/03/01 01:30:33;;;;;;;1999.90;999.90;;;4.20;99.90;;;;;;5034096;28;20465;-75
2022/03/01 01:32:59;;;;;;;1999.90;999.90;;;4.30;99.90;;;;;;5052386;28;20429;-75
2022/03/01 01:35:27;;;;;;;1999.90;999.90;;;4.30;99.90;;;;;;5034179;28;20919;-75
2022/03/01 01:37:54;;;;;;;1999.90;999.90;;;4.70;99.90;;;;;;5052008;28;21021;-75
2022/03/01 01:40:22;;;;;;;1999.90;999.90;;;4.20;99.90;;;;;;5052199;28;20406;-75
2022/03/01 01:42:48;;;;;;;1999.90;999.90;;;4.20;99.90;;;;;;5052223;28;20438;-75
2022/03/01 01:45:15;;;;;;;1999.90;999.90;;;4.20;99.90;;;;;;5051758;28;20437;-75
2022/03/01 01:47:41;;;;;;;1999.90;999.90;;;4.50;99.90;;;;;;5052029;28;20434;-75
2022/03/01 01:50:09;;;;;;;1999.90;999.90;;;4.00;99.90;;;;;;5051916;28;20441;-75
2022/03/01 01:52:35;;;;;;;1999.90;999.90;;;3.70;99.90;;;;;;5052104;28;20790;-75
2022/03/01 01:55:01;;;;;;;1999.90;999.90;;;4.40;99.90;;;;;;5051689;28;20970;-75
2022/03/01 01:57:27;;;;;;;1999.90;999.90;;;3.80;99.90;;;;;;5051917;28;20517;-75
2022/03/01 01:59:55;;;;;;;1999.90;999.90;;;3.70;99.90;;;;;;5051854;28;20410;-75
2022/03/01 02:02:28;;;;;;;1999.90;999.90;;;4.30;99.90;;;;;;5051839;28;20171;-75
2022/03/01 02:04:54;;;;;;;1999.90;999.90;;;3.70;99.90;;;;;;5051702;28;20582;-75
2022/03/01 02:07:20;;;;;;;1999.90;999.90;;;3.80;99.90;;;;;;5051886;28;20176;-75
2022/03/01 02:09:48;;;;;;;1999.90;999.90;;;4.20;99.90;;;;;;5051798;28;20188;-75
2022/03/01 02:12:16;;;;;;;1999.90;999.90;;;4.10;99.90;;;;;;5051734;28;20418;-75
2022/03/01 02:14:42;;;;;;;1999.90;999.90;;;3.40;99.90;;;;;;5051538;28;20172;-75
2022/03/01 02:17:11;;;;;;;1999.90;999.90;;;3.30;99.90;;;;;;5051550;28;20248;-75
2022/03/01 02:19:38;;;;;;;1999.90;999.90;;;3.20;99.90;;;;;;5051798;28;20414;-75
2022/03/01 02:22:06;;;;;;;1999.90;999.90;;;3.80;99.90;;;;;;5051641;28;20214;-75
2022/03/01 02:24:32;;;;;;;1999.90;999.90;;;3.20;99.90;;;;;;5051462;28;20172;-75
2022/03/01 02:27:02;;;;;;;1999.90;999.90;;;3.50;99.90;;;;;;5051594;28;20202;-75
2022/03/01 02:29:35;;;;;;;1999.90;999.90;;;3.10;99.90;;;;;;5051572;28;20223;-75
2022/03/01 02:32:11;;;;;;;1999.90;999.90;;;3.10;99.90;;;;;;5051600;28;20171;-75
2022/03/01 02:34:39;;;;;;;1999.90;999.90;;;3.10;99.90;;;;;;5051334;28;20171;-75
2022/03/01 02:37:05;;;;;;;1999.90;999.90;;;3.50;99.90;;;;;;5033623;28;20192;-75
2022/03/01 02:39:39;;;;;;;1999.90;999.90;;;2.80;99.90;;;;;;5051558;28;20234;-75
2022/03/01 02:42:07;;;;;;;1999.90;999.90;;;2.90;99.90;;;;;;5052796;28;20246;-76
2022/03/01 02:44:35;;;;;;;1999.90;999.90;;;2.90;99.90;;;;;;5037255;28;20184;-76
2022/03/01 02:47:04;;;;;;;1999.90;999.90;;;2.80;99.90;;;;;;5055223;28;20187;-75
2022/03/01 02:49:43;;;;;;;1999.90;999.90;;;2.80;99.90;;;;;;5055236;28;20199;-75
2022/03/01 02:52:29;;;;;;;1999.90;999.90;;;2.70;99.90;;;;;;5055393;28;20198;-75
2022/03/01 02:55:26;;;;;;;1999.90;999.90;;;2.70;99.90;;;;;;5054976;28;20182;-75
2022/03/01 02:58:40;;;;;;;1999.90;999.90;;;2.70;99.90;;;;;;5054992;28;20188;-75
2022/03/01 03:04:14;;;;;;;1999.90;999.90;;;2.70;99.90;;;;;;5043944;28;20656;-75
2022/03/01 03:07:13;;;;;;;1999.90;999.90;;;2.80;99.90;;;;;;5054822;28;20192;-76
2022/03/01 03:10:03;;;;;;;1999.90;999.90;;;3.10;99.90;;;;;;5054983;28;20359;-76
2022/03/01 03:12:59;;;;;;;1999.90;999.90;;;3.00;99.90;;;;;;5041487;28;20182;-76
2022/03/01 03:15:35;;;;;;;1999.90;999.90;;;2.90;99.90;;;;;;5051326;28;20183;-75
2022/03/01 03:18:09;;;;;;;1999.90;999.90;;;2.90;99.90;;;;;;5054548;28;20203;-75
2022/03/01 03:20:44;;;;;;;1999.90;999.90;;;2.90;99.90;;;;;;5054837;28;20209;-75
2022/03/01 03:23:25;;;;;;;1999.90;999.90;;;2.80;99.90;;;;;;5054773;28;20168;-75
2022/03/01 03:25:59;;;;;;;1999.90;999.90;;;2.80;99.90;;;;;;5054449;28;20186;-75
2022/03/01 03:28:56;;;;;;;1999.90;999.90;;;2.70;99.90;;;;;;5054581;28;20190;-75
2022/03/01 03:31:37;;;;;;;;;;;;;;;;;;;;;
2022/03/01 03:34:22;;;;;;;1999.90;999.90;;;2.80;99.90;;;;;;5054257;28;20164;-75
2022/03/01 03:37:19;;;;;;;1999.90;999.90;;;2.80;99.90;;;;;;5054407;28;20563;-76
2022/03/01 03:46:16;;;;;;;1999.90;999.90;;;2.80;99.90;;;;;;5053856;28;20180;-75
2022/03/01 03:48:53;;;;;;;1999.90;999.90;;;2.80;99.90;;;;;;5054120;28;20175;-75
2022/03/01 03:52:01;;;;;;;;;;;;;;;;;;;;;
2022/03/01 03:54:41;;;;;;;1999.90;999.90;;;2.90;99.90;;;;;;5053750;28;20160;-75
2022/03/01 03:57:17;;;;;;;1999.90;999.90;;;2.90;99.90;;;;;;5053956;28;20190;-75
2022/03/01 04:00:08;;;;;;;1999.90;999.90;;;3.50;99.90;;;;;;5054098;28;20171;-75
2022/03/01 04:02:47;;;;;;;1999.90;999.90;;;2.90;99.90;;;;;;5053947;28;20172;-75
2022/03/01 04:05:25;;;;;;;;;;;;;;;;;;;;;
2022/03/01 04:08:12;;;;;;;1999.90;999.90;;;2.70;99.90;;;;;;5053928;28;20203;-75
2022/03/01 04:10:54;;;;;;;1999.90;999.90;;;3.10;99.90;;;;;;5053827;28;20195;-75
2022/03/01 04:16:50;;;;;;;1999.90;999.90;;;2.40;99.90;;;;;;5052337;28;20192;-75
2022/03/01 04:19:39;;;;;;;1999.90;999.90;;;2.30;99.90;;;;;;5053526;28;20195;-75
2022/03/01 04:22:30;;;;;;;1999.90;999.90;;;2.20;99.90;;;;;;5053353;28;20190;-75
2022/03/01 04:25:04;;;;;;;1999.90;999.90;;;2.80;99.90;;;;;;5053221;28;20683;-76
2022/03/01 04:28:14;;;;;;;1999.90;999.90;;;2.50;99.90;;;;;;5053449;28;20202;-75
2022/03/01 04:31:07;;;;;;;1999.90;999.90;;;2.30;99.90;;;;;;5053037;28;20568;-75
2022/03/01 04:34:36;;;;;;;1999.90;999.90;;;2.30;99.90;;;;;;5053242;28;20175;-75
2022/03/01 04:37:30;;;;;;;1999.90;999.90;;;2.50;99.90;;;;;;5053060;28;20570;-75
2022/03/01 04:40:06;;;;;;;1999.90;999.90;;;2.20;99.90;;;;;;5053321;28;20180;-75
2022/03/01 04:43:19;;;;;;;1999.90;999.90;;;2.20;99.90;;;;;;5053304;28;20171;-75
2022/03/01 04:46:34;;;;;;;;;;;;;;;;;;;;;
2022/03/01 04:56:33;;;;;;;;;;;;;;;;;;;;;
2022/03/01 04:59:23;;;;;;;1999.90;999.90;;;2.10;99.90;;;;;;5009566;28;20172;-75
2022/03/01 05:02:17;;;;;;;1999.90;999.90;;;2.00;99.90;;;;;;5052884;28;20175;-75
2022/03/01 05:05:17;;;;;;;1999.90;999.90;;;2.00;99.90;;;;;;5051616;28;20167;-75
2022/03/01 05:07:56;;;;;;;1999.90;999.90;;;2.10;99.90;;;;;;5006150;28;20199;-75
2022/03/01 05:11:04;;;;;;;1999.90;999.90;;;1.90;99.90;;;;;;5052717;28;20242;-75
2022/03/01 05:17:25;;;;;;;;;;;;;;;;;;;;;
2022/03/01 05:20:51;;;;;;;1999.90;999.90;;;2.30;99.90;;;;;;4952256;28;20197;-75
2022/03/01 05:24:02;;;;;;;1999.90;999.90;;;2.40;99.90;;;;;;4927775;29;20679;-75
2022/03/01 05:27:14;;;;;;;1999.90;999.90;;;2.30;99.90;;;;;;4934686;28;20221;-75
2022/03/01 05:30:08;;;;;;;1999.90;999.90;;;2.30;99.90;;;;;;4951941;29;20209;-75
2022/03/01 05:32:47;;;;;;;1999.90;999.90;;;2.40;99.90;;;;;;5052374;28;20164;-75
2022/03/01 05:35:53;;;;;;;;;;;;;;;;;;;;;
2022/03/01 05:38:32;;;;;;;1999.90;999.90;;;2.40;99.90;;;;;;5020434;28;20195;-75
2022/03/01 05:41:17;;;;;;;1999.90;999.90;;;2.40;99.90;;;;;;5051995;28;20175;-75
2022/03/01 05:43:51;;;;;;;1999.90;999.90;;;2.40;99.90;;;;;;5033162;28;20194;-75
2022/03/01 05:49:45;;;;;;;1999.90;999.90;;;2.70;99.90;;;;;;5009380;28;20189;-75
2022/03/01 05:52:16;;;;;;;1999.90;999.90;;;2.60;99.90;;;;;;5051773;28;20728;-75
2022/03/01 05:55:50;;;;;;;1999.90;999.90;;;2.90;99.90;;;;;;5051603;28;20179;-75
2022/03/01 05:58:28;;;;;;;1999.90;999.90;;;2.60;99.90;;;;;;4976070;28;20208;-75
2022/03/01 06:01:48;;;;;;;;;;;;;;;;;;;;;
2022/03/01 06:11:55;;;;;;;1999.90;999.90;;;2.40;99.90;;;;;;5042295;28;20203;-75
2022/03/01 06:18:57;;;;;;;1999.90;999.90;;;2.80;99.90;;;;;;5097858;22;20369;-75
2022/03/01 06:21:52;;;;;;;1999.90;999.90;;;2.80;99.90;;;;;;5089066;28;20174;-75
2022/03/01 06:25:01;;;;;;;;;;;;;;;;;;;;;
2022/03/01 06:31:13;;;;;;;;;;;;;;;;;;;;;
2022/03/01 06:35:02;;;;;;;1999.90;999.90;;;2.90;99.90;;;;;;5115725;28;20158;-75
2022/03/01 06:38:15;;;;;;;;;;;;;;;;;;;;;
2022/03/01 06:41:52;;;;;;;;;;;;;;;;;;;;;
2022/03/01 06:44:56;;;;;;;1999.90;999.90;;;2.90;99.90;;;;;;5088738;28;20180;-75
2022/03/01 06:54:13;;;;;;;1999.90;999.90;;;3.10;99.90;;;;;;5075443;28;20189;-76
2022/03/01 06:57:05;;;;;;;1999.90;999.90;;;3.00;99.90;;;;;;5075920;22;20298;-76
2022/03/01 07:03:02;;;;;;;1999.90;999.90;;;3.10;99.90;;;;;;5035265;28;20200;-76
2022/03/01 07:09:41;;;;;;;1999.90;999.90;;;3.00;99.90;;;;;;5006299;28;20181;-76
2022/03/01 07:15:27;;;;;;;;;;;;;;;;;;;;;
2022/03/01 07:18:38;;;;;;;1999.90;999.90;;;3.00;99.90;;;;;;5015590;28;20204;-76
2022/03/01 07:21:24;;;;;;;1999.90;999.90;;;2.90;99.90;;;;;;4993024;28;20619;-75
2022/03/01 07:24:50;;;;;;;1999.90;999.90;;;3.10;99.90;;;;;;5015021;28;20262;-76
2022/03/01 07:28:10;;;;;;;;;;;;;;;;;;;;;
2022/03/01 07:30:46;;;;;;;1999.90;999.90;;;3.20;99.90;;;;;;4990284;28;20216;-76
2022/03/01 07:33:53;;;;;;;1999.90;999.90;;;3.90;99.90;;;;;;5014801;28;20176;-76
2022/03/01 07:36:47;;;;;;;1999.90;999.90;;;3.30;99.90;;;;;;4996030;28;20486;-76
2022/03/01 07:39:26;;;;;;;1999.90;999.90;;;3.30;99.90;;;;;;5014722;28;20185;-75
2022/03/01 07:42:35;;;;;;;1999.90;999.90;;;3.40;99.90;;;;;;5014436;28;20191;-76
2022/03/01 07:45:21;;;;;;;1999.90;999.90;;;3.50;99.90;;;;;;5013941;28;20658;-75
2022/03/01 07:47:58;;;;;;;1999.90;999.90;;;3.50;99.90;;;;;;5014310;28;20205;-76
2022/03/01 07:50:49;;;;;;;1999.90;999.90;;;3.30;99.90;;;;;;5014442;28;20193;-76
2022/03/01 07:53:46;;;;;;;1999.90;999.90;;;3.60;99.90;;;;;;5014388;28;20181;-76
2022/03/01 07:56:25;;;;;;;1999.90;999.90;;;3.60;99.90;;;;;;5014180;28;20542;-75
2022/03/01 07:59:21;;;;;;;1999.90;999.90;;;3.60;99.90;;;;;;5026005;28;20231;-76
2022/03/01 08:02:29;;;;;;;1999.90;999.90;;;3.70;99.90;;;;;;5014473;28;20161;-76
2022/03/01 08:05:22;;;;;;;1999.90;999.90;;;3.80;99.90;;;;;;5013454;28;20169;-76
2022/03/01 08:11:36;;;;;;;1999.90;999.90;;;4.10;99.90;;;;;;4991731;28;20308;-75
2022/03/01 08:14:32;;;;;;;;;;;;;;;;;;;;;
2022/03/01 08:17:19;;;;;;;1999.90;999.90;;;4.30;99.90;;;;;;5013452;28;20195;-76
2022/03/01 08:20:16;;;;;;;1999.90;999.90;;;4.80;99.90;;;;;;5013633;28;20177;-76
2022/03/01 08:23:06;;;;;;;1999.90;999.90;;;5.00;99.90;;;;;;5013624;28;20403;-75
2022/03/01 08:26:35;;;;;;;1999.90;999.90;;;5.20;99.90;;;;;;5013594;28;20416;-76
2022/03/01 08:32:30;;;;;;;1999.90;999.90;;;5.60;99.90;;;;;;5013913;28;21016;-76
2022/03/01 08:35:04;;;;;;;1999.90;999.90;;;5.80;99.90;;;;;;5013458;28;20766;-75
2022/03/01 08:37:52;;;;;;;1999.90;999.90;;;5.90;99.90;;;;;;5013259;28;20408;-76
2022/03/01 08:40:38;;;;;;;1999.90;999.90;;;6.00;99.90;;;;;;5012565;28;20392;-76
2022/03/01 08:43:35;;;;;;;1999.90;999.90;;;6.20;99.90;;;;;;5013053;28;20439;-76
2022/03/01 08:46:17;;;;;;;1999.90;999.90;;;6.10;99.90;;;;;;5012265;28;20412;-76
2022/03/01 08:49:29;;;;;;;1999.90;999.90;;;6.20;99.90;;;;;;5012684;28;20412;-75
2022/03/01 08:52:12;;;;;;;1999.90;999.90;;;6.30;99.90;;;;;;5013336;28;20475;-76
2022/03/01 08:54:52;;;;;;;1999.90;999.90;;;6.30;99.90;;;;;;5012512;28;20973;-76
2022/03/01 08:57:31;;;;;;;1999.90;999.90;;;6.40;99.90;;;;;;5013104;28;20781;-76
2022/03/01 09:00:45;;;;;;;1999.90;999.90;;;6.40;99.90;;;;;;5013220;28;20424;-75
2022/03/01 09:03:52;;;;;;;1999.90;999.90;;;6.40;99.90;;;;;;4993376;28;20416;-76
2022/03/01 09:06:50;;;;;;;1999.90;999.90;;;6.50;99.90;;;;;;5012740;28;20408;-76
2022/03/01 09:10:01;;;;;;;1999.90;999.90;;;6.60;99.90;;;;;;5013109;28;20408;-76
2022/03/01 09:12:34;;;;;;;1999.90;999.90;;;6.40;99.90;;;;;;4980154;28;20452;-76
2022/03/01 09:15:18;;;;;;;1999.90;999.90;;;6.50;99.90;;;;;;5012346;28;20874;-76
2022/03/01 09:18:00;;;;;;;1999.90;999.90;;;6.70;99.90;;;;;;5012908;28;20451;-75
2022/03/01 09:20:49;;;;;;;1999.90;999.90;;;6.50;99.90;;;;;;5012877;28;20412;-76
2022/03/01 09:23:33;;;;;;;1999.90;999.90;;;6.50;99.90;;;;;;4994989;28;20455;-76
2022/03/01 09:26:06;;;;;;;1999.90;999.90;;;6.90;99.90;;;;;;5011904;28;20418;-76
2022/03/01 09:28:36;;;;;;;1999.90;999.90;;;6.80;99.90;;;;;;5009532;28;21085;-76
2022/03/01 09:31:07;;;;;;;1999.90;999.90;;;7.00;99.90;;;;;;5011748;28;20440;-75
2022/03/01 09:34:15;;;;;;;1999.90;999.90;;;6.50;99.90;;;;;;4994699;28;20459;-75
2022/03/01 09:48:39;;;;;;;1999.90;999.90;;;6.30;99.90;;;;;;5489490;22;20979;-76
2022/03/01 10:08:22;;;;;;;1999.90;999.90;;;8.40;99.90;;;;;;4401109;26;20488;-75
2022/03/01 10:10:57;;;;;;;1999.90;999.90;;;8.90;99.90;;;;;;5091876;28;20556;-74
2022/03/01 10:13:31;;;;;;;1999.90;999.90;;;9.30;99.90;;;;;;5094097;28;20426;-74
2022/03/01 10:19:20;;;;;;;1999.90;999.90;;;10.00;99.90;;;;;;5495857;22;20510;-76
2022/03/01 10:25:12;;;;;;;1999.90;999.90;;;10.30;99.90;;;;;;5091261;28;20405;-75
2022/03/01 10:40:20;;;;;;;1999.90;999.90;;;10.10;99.90;;;;;;5108677;22;20489;-74
2022/03/01 10:43:11;;;;;;;1999.90;999.90;;;10.10;99.90;;;;;;5091069;28;20940;-74
2022/03/01 10:45:56;;;;;;;1999.90;999.90;;;10.20;99.90;;;;;;5091233;28;20932;-73
2022/03/01 10:48:31;;;;;;;1999.90;999.90;;;10.20;99.90;;;;;;5090950;28;20485;-74
2022/03/01 10:51:02;;;;;;;1999.90;999.90;;;10.30;99.90;;;;;;5090898;28;20818;-74
2022/03/01 10:53:37;;;;;;;1999.90;999.90;;;10.30;99.90;;;;;;5091179;28;20490;-74
2022/03/01 10:56:10;;;;;;;1999.90;999.90;;;10.30;99.90;;;;;;5090963;28;20396;-76
2022/03/01 11:21:07;;;;;;;1999.90;999.90;;;11.00;99.90;;;;;;4985702;28;20441;-77
2022/03/01 11:55:27;;;;;;;1999.90;999.90;;;11.70;94.90;;;;;;4967245;28;20451;-76
2022/03/01 11:58:37;;;;;;;1999.90;999.90;;;11.70;91.80;;;;;;4957869;28;20437;-76
2022/03/01 12:05:09;;;;;;;;;;;;;;;;;;;;;
2022/03/01 12:08:17;;;;;;;1999.90;999.90;;;11.60;90.50;;;;;;5010909;28;20452;-76
2022/03/01 12:11:04;;;;;;;1999.90;999.90;;;11.90;91.00;;;;;;5073572;28;20448;-76
2022/03/01 12:14:12;;;;;;;1999.90;999.90;;;12.20;89.00;;;;;;5073085;28;20916;-76
2022/03/01 12:17:48;;;;;;;;;;;;;;;;;;;;;
2022/03/01 12:27:23;;;;;;;1999.90;999.90;;;12.80;74.90;;;;;;5030147;28;20422;-77
2022/03/01 12:30:40;;;;;;;;;;;;;;;;;;;;;
2022/03/01 12:33:36;;;;;;;;;;;;;;;;;;;;;
2022/03/01 12:42:39;;;;;;;1999.90;999.90;;;13.20;72.70;;;;;;5072420;28;20409;-77
2022/03/01 12:45:31;;;;;;;1999.90;999.90;;;13.50;71.50;;;;;;5069696;28;20421;-77
2022/03/01 12:48:31;;;;;;;1999.90;999.90;;;13.50;64.80;;;;;;5072809;28;20799;-76
2022/03/01 12:51:02;;;;;;;1999.90;999.90;;;13.80;67.90;;;;;;5073118;28;20502;-76
2022/03/01 12:53:30;;;;;;;1999.90;999.90;;;13.90;56.60;;;;;;5073109;28;20407;-77
2022/03/01 12:55:58;;;;;;;1999.90;999.90;;;14.20;59.00;;;;;;5072367;28;20958;-77
2022/03/01 13:01:06;;;;;;;1999.90;999.90;;;14.40;56.80;;;;;;5111733;28;20816;-77
2022/03/01 13:03:32;;;;;;;1999.90;999.90;;;14.40;53.30;;;;;;5092775;28;20431;-76
2022/03/01 13:06:13;;;;;;;1999.90;999.90;;;14.40;51.70;;;;;;5092962;28;20403;-77
2022/03/01 13:08:43;;;;;;;1999.90;999.90;;;14.50;51.20;;;;;;5072656;28;20397;-76
2022/03/01 13:11:11;;;;;;;1999.90;999.90;;;14.40;52.20;;;;;;5072228;28;20501;-76
2022/03/01 13:14:04;;;;;;;1999.90;999.90;;;14.10;49.00;;;;;;5072652;28;21031;-76
2022/03/01 13:16:34;;;;;;;1999.90;999.90;;;13.90;51.30;;;;;;5071728;28;20430;-76
2022/03/01 13:19:02;;;;;;;1999.90;999.90;;;13.40;52.10;;;;;;5089086;22;20860;-78
2022/03/01 13:21:29;;;;;;;1999.90;999.90;;;13.10;53.00;;;;;;5071478;28;20422;-79
2022/03/01 13:23:57;;;;;;;1999.90;999.90;;;12.80;51.70;;;;;;5061293;28;20449;-80
2022/03/01 13:26:23;;;;;;;1999.90;999.90;;;12.70;56.30;;;;;;5058506;28;20430;-79
2022/03/01 13:28:49;;;;;;;1999.90;999.90;;;12.50;54.30;;;;;;5058397;28;20518;-80
2022/03/01 13:31:28;;;;;;;1999.90;999.90;;;12.30;55.70;;;;;;5056894;28;20958;-79
2022/03/01 13:37:34;;;;;;;1999.90;999.90;;;12.30;56.50;;;;;;5057113;28;20366;-79
2022/03/01 14:19:06;;;;;;;1999.90;999.90;;;14.00;51.70;;;;;;5073330;28;20537;-80
2022/03/01 14:21:40;;;;;;;1999.90;999.90;;;14.10;53.60;;;;;;5074891;28;20426;-81
2022/03/01 14:24:10;;;;;;;1999.90;999.90;;;14.30;50.80;;;;;;5074621;28;20441;-80
2022/03/01 14:26:41;;;;;;;1999.90;999.90;;;14.20;46.80;;;;;;5075819;28;20388;-80
2022/03/01 14:31:59;;;;;;;1999.90;999.90;;;13.80;47.10;;;;;;5472832;22;20490;-80
2022/03/01 14:34:44;;;;;;;1999.90;999.90;;;13.40;45.80;;;;;;5111900;28;20432;-80
2022/03/01 14:38:10;;;;;;;;;;;;;;;;;;;;;
2022/03/01 14:44:10;;;;;;;1999.90;999.90;;;13.10;49.10;;;;;;5075694;28;20455;-80
2022/03/01 14:56:42;;;;;;;;;;;;;;;;;;;;;
2022/03/01 14:59:22;;;;;;;1999.90;999.90;;;12.50;50.80;;;;;;4980715;28;20432;-80
2022/03/01 15:02:57;;;;;;;;;;;;;;;;;;;;;
2022/03/01 15:05:31;;;;;;;1999.90;999.90;;;12.00;52.90;;;;;;5068716;28;20482;-80
2022/03/01 15:21:27;;;;;;;1999.90;999.90;;;11.40;55.10;;;;;;5176480;22;20991;-77
2022/03/01 15:23:58;;;;;;;1999.90;999.90;;;11.40;55.90;;;;;;5099397;28;20411;-77
2022/03/01 15:45:11;;;;;;;1999.90;999.90;;;10.80;62.00;;;;;;5098447;28;20475;-79
2022/03/01 15:54:04;;;;;;;;;;;;;;;;;;;;;
2022/03/01 15:57:07;;;;;;;;;;;;;;;;;;;;;
2022/03/01 16:00:04;;;;;;;;;;;;;;;;;;;;;
2022/03/01 16:03:12;;;;;;;;;;;;;;;;;;;;;
2022/03/01 16:05:54;;;;;;;;;;;;;;;;;;;;;
2022/03/01 16:08:42;;;;;;;;;;;;;;;;;;;;;
2022/03/01 16:11:54;;;;;;;1999.90;999.90;;;10.50;64.90;;;;;;5078372;28;20551;-79
2022/03/01 16:14:28;;;;;;;;;;;;;;;;;;;;;
2022/03/01 16:20:23;;;;;;;1999.90;999.90;;;10.50;65.00;;;;;;5070235;28;20501;-82
2022/03/01 16:23:23;;;;;;;;;;;;;;;;;;;;;
2022/03/01 16:25:50;;;;;;;;;;;;;;;;;;;;;
2022/03/01 16:31:48;;;;;;;1999.90;999.90;;;10.30;65.60;;;;;;5073490;28;20460;-79
2022/03/01 16:34:28;;;;;;;1999.90;999.90;;;10.30;65.00;;;;;;5075987;28;20447;-78
2022/03/01 16:37:37;;;;;;;1999.90;999.90;;;10.40;63.80;;;;;;5073117;28;20409;-77
2022/03/01 16:40:14;;;;;;;1999.90;999.90;;;10.40;62.40;;;;;;5071604;28;20434;-79
2022/03/01 16:43:00;;;;;;;1999.90;999.90;;;10.40;60.60;;;;;;5073828;28;20501;-78
2022/03/01 16:46:14;;;;;;;1999.90;999.90;;;10.30;63.90;;;;;;5071067;28;20940;-77
2022/03/01 16:51:09;;;;;;;1999.90;999.90;;;10.20;65.20;;;;;;5071420;28;20470;-77
2022/03/01 16:53:53;;;;;;;1999.90;999.90;;;10.10;65.80;;;;;;5070649;28;20461;-77
2022/03/01 16:56:19;;;;;;;1999.90;999.90;;;10.00;68.40;;;;;;5053098;28;20412;-76
2022/03/01 16:58:45;;;;;;;1999.90;999.90;;;9.90;70.40;;;;;;5067575;28;20428;-77
2022/03/01 17:23:52;;;;;;;1999.90;999.90;;;9.50;84.70;;;;;;3122793;22;20499;-78
2022/03/01 17:27:10;;;;;;;1999.90;999.90;;;9.50;84.80;;;;;;5052918;28;20447;-81
2022/03/01 17:30:22;;;;;;;1999.90;999.90;;;9.50;86.00;;;;;;5053397;28;20436;-80
2022/03/01 17:32:48;;;;;;;1999.90;999.90;;;9.40;88.00;;;;;;5053057;28;20488;-77
2022/03/01 17:36:05;;;;;;;1999.90;999.90;;;9.30;90.30;;;;;;5053186;28;20426;-78
2022/03/01 17:38:32;;;;;;;1999.90;999.90;;;9.30;92.30;;;;;;5042463;28;20650;-78
2022/03/01 17:40:58;;;;;;;1999.90;999.90;;;9.30;92.70;;;;;;5057201;28;20429;-78
2022/03/01 17:47:55;;;;;;;;;;;;;;;;;;;;;
2022/03/01 17:50:22;;;;;;;1999.90;999.90;;;9.10;91.50;;;;;;5854959;22;20992;-78
2022/03/01 17:52:49;;;;;;;1999.90;999.90;;;9.00;93.50;;;;;;5073018;28;20425;-78
2022/03/01 17:58:42;;;;;;;1999.90;999.90;;;8.90;93.70;;;;;;5073948;28;20471;-79
2022/03/01 18:01:07;;;;;;;1999.90;999.90;;;8.90;94.80;;;;;;5073928;28;20495;-79
2022/03/01 18:03:33;;;;;;;1999.90;999.90;;;8.80;95.00;;;;;;5075035;28;20401;-79
2022/03/01 18:05:59;;;;;;;1999.90;999.90;;;8.70;95.70;;;;;;5074347;28;20248;-79
2022/03/01 18:08:34;;;;;;;1999.90;999.90;;;8.70;97.00;;;;;;5073618;28;20176;-79
2022/03/01 18:10:59;;;;;;;1999.90;999.90;;;8.70;97.90;;;;;;5074864;28;20555;-80
2022/03/01 18:22:49;;;;;;;1999.90;999.90;;;8.40;99.30;;;;;;1403624;26;20470;-77
2022/03/01 18:25:15;;;;;;;1999.90;999.90;;;8.20;99.90;;;;;;5038151;28;20466;-77
2022/03/01 18:27:48;;;;;;;1999.90;999.90;;;8.20;99.90;;;;;;5037760;28;20404;-77
2022/03/01 18:30:18;;;;;;;1999.90;999.90;;;8.20;99.90;;;;;;5001462;28;20234;-79
2022/03/01 18:32:50;;;;;;;1999.90;999.90;;;8.40;99.90;;;;;;5028098;28;20429;-78
2022/03/01 18:35:20;;;;;;;1999.90;999.90;;;8.10;99.90;;;;;;5020079;28;20219;-79
2022/03/01 18:37:46;;;;;;;1999.90;999.90;;;8.00;99.90;;;;;;5027797;28;20405;-79
2022/03/01 18:40:12;;;;;;;1999.90;999.90;;;7.90;99.90;;;;;;5025244;28;20482;-80
2022/03/01 18:43:25;;;;;;;1999.90;999.90;;;7.90;99.90;;;;;;5036259;28;20512;-76
2022/03/01 18:46:01;;;;;;;1999.90;999.90;;;7.80;99.90;;;;;;5022059;28;20771;-76
2022/03/01 18:49:02;;;;;;;1999.90;999.90;;;7.80;99.90;;;;;;5017495;28;20413;-76
2022/03/01 18:52:00;;;;;;;1999.90;999.90;;;7.70;99.90;;;;;;4999842;28;20488;-76
2022/03/01 18:54:26;;;;;;;1999.90;999.90;;;7.70;99.90;;;;;;5010497;28;20414;-78
2022/03/01 18:57:32;;;;;;;1999.90;999.90;;;7.60;99.90;;;;;;5002031;28;20462;-77
2022/03/01 19:07:04;;;;;;;1999.90;999.90;;;7.50;99.90;;;;;;4939375;29;20955;-79
2022/03/01 19:09:34;;;;;;;1999.90;999.90;;;7.40;99.90;;;;;;4923037;29;20949;-78
2022/03/01 19:11:59;;;;;;;1999.90;999.90;;;7.30;99.90;;;;;;4967068;28;20478;-78
2022/03/01 19:18:17;;;;;;;1999.90;999.90;;;7.50;99.90;;;;;;4998167;28;20213;-78
2022/03/01 19:20:59;;;;;;;1999.90;999.90;;;7.60;99.90;;;;;;4997026;28;20477;-78
2022/03/01 19:23:27;;;;;;;1999.90;999.90;;;7.20;99.90;;;;;;4979915;28;20206;-77
2022/03/01 19:29:14;;;;;;;1999.90;999.90;;;7.10;99.90;;;;;;5001972;28;20427;-78
2022/03/01 19:31:40;;;;;;;1999.90;999.90;;;7.40;99.90;;;;;;5104652;22;20558;-76
2022/03/01 19:34:08;;;;;;;1999.90;999.90;;;7.10;99.90;;;;;;5078284;28;20900;-75
2022/03/01 19:36:33;;;;;;;1999.90;999.90;;;7.10;99.90;;;;;;5092514;28;20170;-74
2022/03/01 19:38:59;;;;;;;1999.90;999.90;;;7.00;99.90;;;;;;5094248;28;20405;-74
2022/03/01 19:41:25;;;;;;;1999.90;999.90;;;7.00;99.90;;;;;;5092986;28;20197;-74
2022/03/01 19:43:51;;;;;;;1999.90;999.90;;;6.90;99.90;;;;;;5093787;28;20230;-74
2022/03/01 19:46:17;;;;;;;1999.90;999.90;;;6.90;99.90;;;;;;5093729;28;20181;-74